Portada
METAR-TAF:

METAR-TAF

Aeroports :

Aeroport d'Hèlsinki-Vantaa

Hèlsinki, Finlàndia

latitud: 60-19N, longitud: 024-58E, altitud: 51 m

Observació

L'informe es va fer fa 16 minuts, a les 13:50 UTC
Vent 16 kt del Sud-Oest
Temperatura 23°C
Humitat 44%
Pressió 1008 hPa
Visibilitat 10 km o més
sense núvols per sota de 1500 mi sense presència de cumulonimbus.

METAR: EFHK 191350Z 23016KT CAVOK 23/10 Q1008 NOSIG

Hora: 17:06 (14:06 UTC)

Pronòstic

L'informe es va fer fa 2 hores i 31 minuts, a les 11:35 UTC
Pronòstic vàlid del 19 a les 12 UTC al 20 a les 12 UTC
Vent 15 kt del Sud-Oest
Visibilitat 10 km o més
Núvols disperses a una alçada de 4300 ft
Evolucionant progressivament
l' 19 a les 18 UTC al 19 a les 20 UTC
Vent 5 kt del Oest
Temporalment
l' 20 a les 07 UTC al 20 a les 12 UTC
Núvols disperses a una alçada de 4000 ft, Cumulonimbus.
Cel ennuvolat a una alçada de 5000 ft

TAF: EFHK 191135Z 1912/2012 22015KT 9999 SCT043 BECMG 1918/1920 27005KT TEMPO 2007/2012 SCT040CB BKN050

Observacions i pronòstics meteorològics de més de 4000 aeroports (METAR i TAF).

Les estacions disponibles són els punts grocs i vermells al mapa.

Posi el ratolí al punt desitjat per veure el nom de l'estació.

Feu clic per veure les observacions i els pronòstics meteorològics.

Per canviar el mapa: feu clic els botons verds amb una creu de color negre per apropar; al botó verd amb un guió per allunyar la imatge; o en les fletxes verdes per a mapes adjacents.


METAR-TAF: